Time,TemperatureF,DewpointF,PressureIn,WindDirection,WindDirectionDegrees,WindSpeedMPH,WindSpeedGustMPH,Humidity,HourlyPrecipIn,Conditions,Clouds,dailyrainin,SoftwareType,DateUTC
2013-01-23 00:05:00,37.8,37.4,29.91,SE,135,2.0,2.0,93,0.00,,,0.00,WeatherTracker,2013-01-23 08:05:00,
2013-01-23 00:15:00,37.6,35.6,29.88,South,180,1.0,0.0,92,0.00,,,0.00,WeatherTracker,2013-01-23 08:15:00,
2013-01-23 00:20:00,37.6,35.6,29.88,ENE,67,0.0,0.0,92,0.00,,,0.00,WeatherTracker,2013-01-23 08:20:00,
2013-01-23 00:25:00,37.6,35.6,29.88,ENE,67,0.0,0.0,92,0.00,,,0.00,WeatherTracker,2013-01-23 08:25:00,
2013-01-23 00:30:00,37.6,35.6,29.88,ENE,67,0.0,0.0,92,0.00,,,0.00,WeatherTracker,2013-01-23 08:30:00,
2013-01-23 00:40:00,37.4,35.6,29.88,ENE,67,0.0,0.0,92,0.00,,,0.00,WeatherTracker,2013-01-23 08:40:00,
2013-01-23 00:50:00,37.4,35.6,29.88,ENE,67,0.0,0.0,92,0.00,,,0.00,WeatherTracker,2013-01-23 08:50:00,
2013-01-23 01:00:00,37.4,35.6,29.88,ESE,112,0.0,0.0,92,0.00,,,0.00,WeatherTracker,2013-01-23 09:00:00,
2013-01-23 01:10:00,37.6,35.6,29.88,SE,135,1.0,0.0,92,0.00,,,0.00,WeatherTracker,2013-01-23 09:10:00,
2013-01-23 01:15:00,37.6,35.6,29.83,ESE,112,0.0,0.0,92,0.00,,,0.00,WeatherTracker,2013-01-23 09:15:00,
2013-01-23 01:25:00,37.9,37.4,29.83,SSE,157,1.0,2.0,93,0.00,,,0.00,WeatherTracker,2013-01-23 09:25:00,
2013-01-23 01:35:00,38.7,37.4,29.83,ENE,67,5.0,5.0,93,0.00,,,0.00,WeatherTracker,2013-01-23 09:35:00,
2013-01-23 01:45:00,39.2,37.4,29.83,South,180,1.0,3.0,89,0.00,,,0.00,WeatherTracker,2013-01-23 09:45:00,
2013-01-23 01:50:00,39.4,35.6,29.83,SE,135,2.0,2.0,88,0.00,,,0.00,WeatherTracker,2013-01-23 09:50:00,
2013-01-23 02:00:00,39.4,35.6,29.83,East,90,2.0,2.0,88,0.00,,,0.00,WeatherTracker,2013-01-23 10:00:00,
2013-01-23 02:10:00,39.4,37.4,29.83,East,90,1.0,2.0,89,0.00,,,0.00,WeatherTracker,2013-01-23 10:10:00,
2013-01-23 02:15:00,39.4,35.6,29.83,South,180,3.0,4.0,88,0.00,,,0.00,WeatherTracker,2013-01-23 10:15:00,
2013-01-23 02:25:00,39.9,35.6,29.83,East,90,1.0,0.0,85,0.00,,,0.00,WeatherTracker,2013-01-23 10:25:00,
2013-01-23 02:35:00,39.7,37.4,29.83,ESE,112,0.0,1.0,87,0.00,,,0.00,WeatherTracker,2013-01-23 10:35:00,
2013-01-23 02:45:00,39.7,37.4,29.83,ESE,112,0.0,0.0,87,0.00,,,0.00,WeatherTracker,2013-01-23 10:45:00,
2013-01-23 02:50:00,39.6,35.6,29.83,ESE,112,0.0,0.0,86,0.00,,,0.00,WeatherTracker,2013-01-23 10:50:00,
2013-01-23 03:00:00,39.4,35.6,29.83,ESE,112,0.0,0.0,86,0.00,,,0.00,WeatherTracker,2013-01-23 11:00:00,
2013-01-23 03:10:00,39.7,35.6,29.83,NNE,22,0.0,2.0,86,0.00,,,0.00,WeatherTracker,2013-01-23 11:10:00,
2013-01-23 03:20:00,39.7,35.6,29.83,East,90,1.0,1.0,86,0.00,,,0.00,WeatherTracker,2013-01-23 11:20:00,
2013-01-23 03:25:00,40.3,37.4,29.83,North,0,2.0,2.0,85,0.00,,,0.00,WeatherTracker,2013-01-23 11:25:00,
2013-01-23 03:35:00,40.8,37.4,29.85,WNW,292,1.0,2.0,85,0.00,,,0.00,WeatherTracker,2013-01-23 11:35:00,
2013-01-23 03:45:00,41.0,37.4,29.85,SW,225,1.0,3.0,84,0.00,,,0.00,WeatherTracker,2013-01-23 11:45:00,
2013-01-23 03:50:00,41.0,37.4,29.85,East,90,0.0,0.0,83,0.00,,,0.00,WeatherTracker,2013-01-23 11:50:00,
2013-01-23 04:00:00,41.2,37.4,29.83,North,0,0.0,0.0,83,0.00,,,0.00,WeatherTracker,2013-01-23 12:00:00,
2013-01-23 04:10:00,40.8,35.6,29.83,ESE,112,0.0,0.0,83,0.00,,,0.00,WeatherTracker,2013-01-23 12:10:00,
2013-01-23 04:15:00,40.6,35.6,29.83,SE,135,2.0,2.0,83,0.00,,,0.00,WeatherTracker,2013-01-23 12:15:00,
2013-01-23 04:20:00,40.5,35.6,29.83,East,90,0.0,0.0,83,0.00,,,0.00,WeatherTracker,2013-01-23 12:20:00,
2013-01-23 04:25:00,40.3,35.6,29.83,East,90,0.0,0.0,84,0.00,,,0.00,WeatherTracker,2013-01-23 12:25:00,
2013-01-23 04:30:00,40.1,35.6,29.83,East,90,0.0,0.0,84,0.00,,,0.00,WeatherTracker,2013-01-23 12:30:00,
2013-01-23 04:35:00,39.9,35.6,29.83,East,90,0.0,0.0,85,0.00,,,0.00,WeatherTracker,2013-01-23 12:35:00,
2013-01-23 04:45:00,39.7,35.6,29.85,ESE,112,1.0,1.0,86,0.00,,,0.00,WeatherTracker,2013-01-23 12:45:00,
2013-01-23 04:55:00,39.6,37.4,29.85,ESE,112,0.0,0.0,87,0.00,,,0.00,WeatherTracker,2013-01-23 12:55:00,
2013-01-23 05:00:00,39.4,35.6,29.83,SE,135,1.0,1.0,87,0.00,,,0.00,WeatherTracker,2013-01-23 13:00:00,
2013-01-23 05:05:00,39.4,35.6,29.83,ESE,112,0.0,0.0,87,0.00,,,0.00,WeatherTracker,2013-01-23 13:05:00,
2013-01-23 05:10:00,39.2,35.6,29.83,ESE,112,0.0,0.0,88,0.00,,,0.00,WeatherTracker,2013-01-23 13:10:00,
2013-01-23 05:20:00,39.4,37.4,29.83,ESE,112,2.0,2.0,89,0.00,,,0.00,WeatherTracker,2013-01-23 13:20:00,
2013-01-23 05:30:00,39.6,37.4,29.80,SSW,202,1.0,2.0,91,0.00,,,0.00,WeatherTracker,2013-01-23 13:30:00,
2013-01-23 05:35:00,39.7,37.4,29.80,SE,135,2.0,2.0,91,0.00,,,0.00,WeatherTracker,2013-01-23 13:35:00,
2013-01-23 05:40:00,39.7,37.4,29.80,South,180,3.0,4.0,91,0.00,,,0.00,WeatherTracker,2013-01-23 13:40:00,
2013-01-23 05:45:00,39.9,37.4,29.83,South,180,4.0,4.0,90,0.00,,,0.00,WeatherTracker,2013-01-23 13:45:00,
2013-01-23 05:55:00,39.9,37.4,29.83,ESE,112,2.0,0.0,88,0.00,,,0.00,WeatherTracker,2013-01-23 13:55:00,
2013-01-23 06:05:00,39.7,37.4,29.83,East,90,1.0,1.0,88,0.00,,,0.00,WeatherTracker,2013-01-23 14:05:00,
2013-01-23 06:10:00,39.6,37.4,29.83,SE,135,0.0,0.0,89,0.00,,,0.00,WeatherTracker,2013-01-23 14:10:00,
2013-01-23 06:15:00,39.6,37.4,29.80,ENE,67,1.0,0.0,89,0.00,,,0.00,WeatherTracker,2013-01-23 14:15:00,
2013-01-23 06:20:00,39.4,37.4,29.80,ENE,67,0.0,0.0,89,0.00,,,0.00,WeatherTracker,2013-01-23 14:20:00,
2013-01-23 06:30:00,39.2,37.4,29.80,ESE,112,0.0,0.0,90,0.00,,,0.00,WeatherTracker,2013-01-23 14:30:00,
2013-01-23 06:40:00,39.0,37.4,29.80,ESE,112,0.0,0.0,90,0.00,,,0.00,WeatherTracker,2013-01-23 14:40:00,
2013-01-23 06:45:00,38.8,35.6,29.80,ESE,112,1.0,1.0,90,0.00,,,0.00,WeatherTracker,2013-01-23 14:45:00,
2013-01-23 06:50:00,38.8,37.4,29.80,SSE,157,0.0,2.0,91,0.00,,,0.00,WeatherTracker,2013-01-23 14:50:00,
2013-01-23 06:55:00,38.7,37.4,29.80,East,90,0.0,0.0,91,0.00,,,0.00,WeatherTracker,2013-01-23 14:55:00,
2013-01-23 07:05:00,38.7,37.4,29.80,ENE,67,0.0,0.0,91,0.00,,,0.00,WeatherTracker,2013-01-23 15:05:00,
2013-01-23 07:15:00,38.8,37.4,29.80,ENE,67,0.0,0.0,92,0.00,,,0.00,WeatherTracker,2013-01-23 15:15:00,
2013-01-23 07:20:00,39.0,37.4,29.80,ENE,67,0.0,0.0,92,0.00,,,0.00,WeatherTracker,2013-01-23 15:20:00,
2013-01-23 07:25:00,39.0,37.4,29.80,SE,135,0.0,1.0,92,0.00,,,0.00,WeatherTracker,2013-01-23 15:25:00,
2013-01-23 07:30:00,39.0,37.4,29.80,ESE,112,0.0,0.0,92,0.00,,,0.00,WeatherTracker,2013-01-23 15:30:00,
2013-01-23 07:40:00,39.0,37.4,29.80,ENE,67,0.0,1.0,92,0.00,,,0.00,WeatherTracker,2013-01-23 15:40:00,
2013-01-23 07:50:00,39.2,37.4,29.80,NNE,22,1.0,3.0,93,0.00,,,0.00,WeatherTracker,2013-01-23 15:50:00,
2013-01-23 07:55:00,39.4,37.4,29.80,West,270,2.0,3.0,93,0.00,,,0.00,WeatherTracker,2013-01-23 15:55:00,
2013-01-23 08:00:00,39.4,37.4,29.80,NW,315,0.0,1.0,92,0.00,,,0.00,WeatherTracker,2013-01-23 16:00:00,
2013-01-23 08:05:00,39.4,37.4,29.80,NW,315,0.0,0.0,92,0.00,,,0.00,WeatherTracker,2013-01-23 16:05:00,
2013-01-23 08:15:00,39.2,37.4,29.80,NW,315,0.0,0.0,92,0.00,,,0.00,WeatherTracker,2013-01-23 16:15:00,
2013-01-23 08:20:00,39.2,37.4,29.80,SE,135,1.0,1.0,92,0.00,,,0.00,WeatherTracker,2013-01-23 16:20:00,
2013-01-23 08:25:00,39.0,37.4,29.80,SE,135,0.0,0.0,93,0.00,,,0.00,WeatherTracker,2013-01-23 16:25:00,
2013-01-23 08:30:00,39.0,37.4,29.80,ESE,112,0.0,0.0,93,0.00,,,0.00,WeatherTracker,2013-01-23 16:30:00,
2013-01-23 08:40:00,39.0,37.4,29.80,SSE,157,1.0,0.0,94,0.00,,,0.00,WeatherTracker,2013-01-23 16:40:00,
2013-01-23 08:50:00,39.4,37.4,29.77,SE,135,3.0,3.0,94,0.00,,,0.00,WeatherTracker,2013-01-23 16:50:00,
2013-01-23 08:55:00,39.6,39.2,29.77,South,180,1.0,2.0,95,0.00,,,0.00,WeatherTracker,2013-01-23 16:55:00,
2013-01-23 09:00:00,39.9,39.2,29.77,South,180,4.0,4.0,95,0.00,,,0.00,WeatherTracker,2013-01-23 17:00:00,
2013-01-23 09:10:00,40.3,37.4,29.77,SSE,157,4.0,4.0,92,0.00,,,0.00,WeatherTracker,2013-01-23 17:10:00,
2013-01-23 09:15:00,40.3,39.2,29.80,South,180,2.0,4.0,93,0.00,,,0.00,WeatherTracker,2013-01-23 17:15:00,
2013-01-23 09:25:00,40.5,39.2,29.80,ESE,112,5.0,5.0,93,0.00,,,0.00,WeatherTracker,2013-01-23 17:25:00,
2013-01-23 09:35:00,40.5,39.2,29.80,SE,135,1.0,4.0,93,0.00,,,0.00,WeatherTracker,2013-01-23 17:35:00,
2013-01-23 09:40:00,40.5,39.2,29.80,SE,135,4.0,6.0,93,0.00,,,0.00,WeatherTracker,2013-01-23 17:40:00,
2013-01-23 09:45:00,40.5,39.2,29.80,SE,135,3.0,3.0,93,0.00,,,0.00,WeatherTracker,2013-01-23 17:45:00,
2013-01-23 09:50:00,40.5,39.2,29.80,ESE,112,5.0,5.0,94,0.00,,,0.00,WeatherTracker,2013-01-23 17:50:00,
2013-01-23 10:00:00,40.6,39.2,29.80,SSE,157,3.0,4.0,94,0.00,,,0.00,WeatherTracker,2013-01-23 18:00:00,
2013-01-23 10:05:00,40.8,39.2,29.80,SSE,157,4.0,4.0,95,0.00,,,0.00,WeatherTracker,2013-01-23 18:05:00,
2013-01-23 10:10:00,40.8,39.2,29.80,SE,135,4.0,4.0,95,0.00,,,0.00,WeatherTracker,2013-01-23 18:10:00,
2013-01-23 10:15:00,40.8,39.2,29.77,SE,135,3.0,3.0,95,0.00,,,0.00,WeatherTracker,2013-01-23 18:15:00,
2013-01-23 10:20:00,41.0,41.0,29.77,East,90,4.0,4.0,95,0.00,,,0.00,WeatherTracker,2013-01-23 18:20:00,
2013-01-23 10:25:00,41.0,41.0,29.77,ESE,112,3.0,3.0,95,0.00,,,0.00,WeatherTracker,2013-01-23 18:25:00,
2013-01-23 10:35:00,41.0,41.0,29.80,SE,135,3.0,3.0,95,0.00,,,0.00,WeatherTracker,2013-01-23 18:35:00,
2013-01-23 10:45:00,41.2,41.0,29.80,SSE,157,3.0,3.0,96,0.00,,,0.00,WeatherTracker,2013-01-23 18:45:00,
2013-01-23 10:50:00,41.2,41.0,29.80,South,180,2.0,2.0,96,0.00,,,0.00,WeatherTracker,2013-01-23 18:50:00,
2013-01-23 10:55:00,41.2,41.0,29.80,ESE,112,2.0,0.0,96,0.04,,,0.04,WeatherTracker,2013-01-23 18:55:00,
2013-01-23 11:00:00,41.4,41.0,29.77,SE,135,2.0,2.0,96,0.04,,,0.04,WeatherTracker,2013-01-23 19:00:00,
2013-01-23 11:10:00,41.4,41.0,29.77,SE,135,0.0,2.0,96,0.04,,,0.04,WeatherTracker,2013-01-23 19:10:00,
2013-01-23 11:20:00,41.5,41.0,29.80,SE,135,1.0,1.0,96,0.04,,,0.04,WeatherTracker,2013-01-23 19:20:00,
2013-01-23 11:25:00,41.7,41.0,29.80,East,90,4.0,4.0,97,0.04,,,0.04,WeatherTracker,2013-01-23 19:25:00,
2013-01-23 11:30:00,41.7,41.0,29.77,SE,135,2.0,2.0,97,0.04,,,0.04,WeatherTracker,2013-01-23 19:30:00,
2013-01-23 11:35:00,41.9,42.8,29.77,SSE,157,2.0,4.0,97,0.04,,,0.04,WeatherTracker,2013-01-23 19:35:00,
2013-01-23 11:45:00,41.7,41.0,29.77,SE,135,2.0,2.0,97,0.04,,,0.04,WeatherTracker,2013-01-23 19:45:00,
2013-01-23 11:55:00,41.7,41.0,29.77,SSE,157,1.0,3.0,97,0.00,,,0.04,WeatherTracker,2013-01-23 19:55:00,
2013-01-23 12:00:00,41.5,41.0,29.77,SE,135,2.0,3.0,97,0.05,,,0.09,WeatherTracker,2013-01-23 20:00:00,
2013-01-23 12:05:00,41.7,41.0,29.77,SE,135,0.0,4.0,97,0.05,,,0.09,WeatherTracker,2013-01-23 20:05:00,
2013-01-23 12:15:00,41.5,41.0,29.77,SE,135,1.0,1.0,97,0.05,,,0.09,WeatherTracker,2013-01-23 20:15:00,
2013-01-23 12:20:00,41.5,41.0,29.77,SE,135,3.0,3.0,97,0.05,,,0.09,WeatherTracker,2013-01-23 20:20:00,
2013-01-23 12:30:00,41.7,41.0,29.77,SSW,202,1.0,0.0,97,0.08,,,0.12,WeatherTracker,2013-01-23 20:30:00,
2013-01-23 12:35:00,41.7,41.0,29.77,ENE,67,0.0,0.0,97,0.08,,,0.12,WeatherTracker,2013-01-23 20:35:00,
2013-01-23 12:40:00,41.7,41.0,29.77,ENE,67,0.0,0.0,97,0.08,,,0.12,WeatherTracker,2013-01-23 20:40:00,
2013-01-23 12:45:00,41.7,41.0,29.77,East,90,0.0,0.0,97,0.08,,,0.12,WeatherTracker,2013-01-23 20:45:00,
2013-01-23 12:55:00,41.5,41.0,29.77,East,90,1.0,0.0,97,0.08,,,0.12,WeatherTracker,2013-01-23 20:55:00,
2013-01-23 13:05:00,41.5,41.0,29.77,SSW,202,0.0,2.0,97,0.08,,,0.17,WeatherTracker,2013-01-23 21:05:00,
2013-01-23 13:10:00,41.5,41.0,29.77,ESE,112,0.0,0.0,97,0.08,,,0.17,WeatherTracker,2013-01-23 21:10:00,
2013-01-23 13:20:00,41.5,41.0,29.77,SE,135,0.0,1.0,97,0.08,,,0.17,WeatherTracker,2013-01-23 21:20:00,
2013-01-23 13:30:00,41.7,41.0,29.77,SE,135,1.0,2.0,97,0.09,,,0.21,WeatherTracker,2013-01-23 21:30:00,
2013-01-23 13:35:00,41.7,41.0,29.77,ESE,112,0.0,2.0,97,0.09,,,0.21,WeatherTracker,2013-01-23 21:35:00,
2013-01-23 13:40:00,41.7,41.0,29.77,SE,135,1.0,4.0,97,0.09,,,0.21,WeatherTracker,2013-01-23 21:40:00,
2013-01-23 13:50:00,41.9,42.8,29.77,SE,135,4.0,4.0,98,0.13,,,0.25,WeatherTracker,2013-01-23 21:50:00,
2013-01-23 13:55:00,41.9,42.8,29.77,SE,135,3.0,3.0,98,0.13,,,0.25,WeatherTracker,2013-01-23 21:55:00,
2013-01-23 14:05:00,41.9,42.8,29.74,South,180,3.0,5.0,98,0.08,,,0.25,WeatherTracker,2013-01-23 22:05:00,
2013-01-23 14:15:00,41.7,42.8,29.74,ESE,112,2.0,2.0,98,0.12,,,0.29,WeatherTracker,2013-01-23 22:15:00,
2013-01-23 14:20:00,41.7,42.8,29.74,South,180,4.0,4.0,98,0.12,,,0.29,WeatherTracker,2013-01-23 22:20:00,
2013-01-23 14:25:00,41.7,42.8,29.74,SSW,202,4.0,4.0,98,0.08,,,0.29,WeatherTracker,2013-01-23 22:25:00,
2013-01-23 14:30:00,41.7,42.8,29.74,SSE,157,3.0,3.0,98,0.08,,,0.29,WeatherTracker,2013-01-23 22:30:00,
2013-01-23 14:40:00,41.7,42.8,29.74,SSW,202,3.0,3.0,98,0.08,,,0.29,WeatherTracker,2013-01-23 22:40:00,
2013-01-23 14:50:00,41.7,42.8,29.74,SE,135,3.0,3.0,98,0.08,,,0.33,WeatherTracker,2013-01-23 22:50:00,
2013-01-23 14:55:00,41.7,42.8,29.74,SE,135,4.0,4.0,98,0.08,,,0.33,WeatherTracker,2013-01-23 22:55:00,
2013-01-23 15:00:00,41.7,42.8,29.74,South,180,3.0,3.0,98,0.08,,,0.33,WeatherTracker,2013-01-23 23:00:00,
2013-01-23 15:05:00,41.7,42.8,29.74,SE,135,3.0,4.0,98,0.08,,,0.33,WeatherTracker,2013-01-23 23:05:00,
2013-01-23 15:15:00,41.7,42.8,29.77,South,180,3.0,6.0,98,0.04,,,0.33,WeatherTracker,2013-01-23 23:15:00,
2013-01-23 15:25:00,41.5,42.8,29.77,South,180,1.0,3.0,98,0.04,,,0.33,WeatherTracker,2013-01-23 23:25:00,
2013-01-23 15:30:00,41.7,42.8,29.77,SSE,157,3.0,3.0,98,0.08,,,0.37,WeatherTracker,2013-01-23 23:30:00,
2013-01-23 15:35:00,41.7,42.8,29.77,SE,135,4.0,4.0,98,0.08,,,0.37,WeatherTracker,2013-01-23 23:35:00,
2013-01-23 15:40:00,41.5,42.8,29.77,SE,135,2.0,4.0,98,0.08,,,0.37,WeatherTracker,2013-01-23 23:40:00,
2013-01-23 15:50:00,41.5,42.8,29.77,SSW,202,0.0,2.0,98,0.04,,,0.37,WeatherTracker,2013-01-23 23:50:00,
2013-01-23 16:00:00,41.4,41.0,29.77,SSE,157,4.0,4.0,98,0.04,,,0.37,WeatherTracker,2013-01-24 00:00:00,
2013-01-23 16:10:00,41.0,41.0,29.77,East,90,2.0,2.0,98,0.04,,,0.37,WeatherTracker,2013-01-24 00:10:00,
2013-01-23 16:15:00,41.0,41.0,29.80,SE,135,2.0,2.0,98,0.04,,,0.37,WeatherTracker,2013-01-24 00:15:00,
2013-01-23 16:25:00,40.8,41.0,29.80,SE,135,4.0,4.0,98,0.04,,,0.37,WeatherTracker,2013-01-24 00:25:00,
2013-01-23 16:35:00,40.6,41.0,29.77,SE,135,4.0,4.0,98,0.05,,,0.42,WeatherTracker,2013-01-24 00:35:00,
2013-01-23 16:40:00,40.6,41.0,29.77,SSE,157,3.0,4.0,98,0.05,,,0.42,WeatherTracker,2013-01-24 00:40:00,
2013-01-23 16:50:00,40.5,41.0,29.80,East,90,0.0,0.0,98,0.05,,,0.42,WeatherTracker,2013-01-24 00:50:00,
2013-01-23 17:00:00,40.5,41.0,29.80,East,90,0.0,0.0,98,0.05,,,0.42,WeatherTracker,2013-01-24 01:00:00,
2013-01-23 17:10:00,40.5,41.0,29.80,SE,135,0.0,1.0,98,0.05,,,0.42,WeatherTracker,2013-01-24 01:10:00,
2013-01-23 17:15:00,40.3,41.0,29.80,SE,135,2.0,3.0,98,0.05,,,0.42,WeatherTracker,2013-01-24 01:15:00,
2013-01-23 17:20:00,40.3,41.0,29.80,ESE,112,1.0,2.0,98,0.05,,,0.42,WeatherTracker,2013-01-24 01:20:00,
2013-01-23 17:30:00,40.3,41.0,29.80,ESE,112,0.0,0.0,98,0.00,,,0.42,WeatherTracker,2013-01-24 01:30:00,
2013-01-23 17:35:00,40.3,41.0,29.80,East,90,0.0,0.0,98,0.00,,,0.42,WeatherTracker,2013-01-24 01:35:00,
2013-01-23 17:45:00,40.3,41.0,29.80,East,90,0.0,0.0,98,0.00,,,0.42,WeatherTracker,2013-01-24 01:45:00,
2013-01-23 17:55:00,40.3,41.0,29.80,SE,135,1.0,1.0,98,0.04,,,0.46,WeatherTracker,2013-01-24 01:55:00,
2013-01-23 18:00:00,40.3,41.0,29.80,East,90,0.0,0.0,98,0.04,,,0.46,WeatherTracker,2013-01-24 02:00:00,
2013-01-23 18:10:00,40.3,41.0,29.80,East,90,0.0,0.0,98,0.04,,,0.46,WeatherTracker,2013-01-24 02:10:00,
2013-01-23 18:15:00,40.3,41.0,29.83,East,90,0.0,0.0,98,0.04,,,0.46,WeatherTracker,2013-01-24 02:15:00,
2013-01-23 18:20:00,40.3,41.0,29.83,East,90,0.0,0.0,98,0.04,,,0.46,WeatherTracker,2013-01-24 02:20:00,
2013-01-23 18:25:00,40.3,41.0,29.83,East,90,0.0,0.0,98,0.04,,,0.46,WeatherTracker,2013-01-24 02:25:00,
2013-01-23 18:30:00,40.3,41.0,29.80,East,90,0.0,0.0,98,0.04,,,0.46,WeatherTracker,2013-01-24 02:30:00,
2013-01-23 18:35:00,40.3,41.0,29.80,East,90,0.0,0.0,98,0.04,,,0.46,WeatherTracker,2013-01-24 02:35:00,
2013-01-23 18:45:00,40.3,41.0,29.83,East,90,0.0,0.0,98,0.04,,,0.46,WeatherTracker,2013-01-24 02:45:00,
2013-01-23 18:55:00,40.3,41.0,29.83,East,90,0.0,0.0,98,0.00,,,0.46,WeatherTracker,2013-01-24 02:55:00,
2013-01-23 19:00:00,40.1,41.0,29.83,East,90,0.0,0.0,98,0.00,,,0.46,WeatherTracker,2013-01-24 03:00:00,
2013-01-23 19:10:00,40.1,41.0,29.83,East,90,0.0,0.0,98,0.00,,,0.46,WeatherTracker,2013-01-24 03:10:00,
2013-01-23 19:20:00,40.1,41.0,29.83,East,90,0.0,0.0,98,0.00,,,0.46,WeatherTracker,2013-01-24 03:20:00,
2013-01-23 19:30:00,40.3,41.0,29.85,SE,135,0.0,1.0,98,0.00,,,0.46,WeatherTracker,2013-01-24 03:30:00,
2013-01-23 19:40:00,40.3,41.0,29.85,ESE,112,0.0,0.0,98,0.00,,,0.46,WeatherTracker,2013-01-24 03:40:00,
2013-01-23 19:45:00,40.3,41.0,29.85,ESE,112,0.0,0.0,98,0.00,,,0.46,WeatherTracker,2013-01-24 03:45:00,
2013-01-23 19:55:00,40.3,41.0,29.85,ESE,112,0.0,0.0,98,0.00,,,0.46,WeatherTracker,2013-01-24 03:55:00,
2013-01-23 20:05:00,40.3,41.0,29.88,ESE,112,0.0,0.0,98,0.00,,,0.46,WeatherTracker,2013-01-24 04:05:00,
2013-01-23 20:15:00,40.3,41.0,29.85,ESE,112,0.0,0.0,98,0.00,,,0.46,WeatherTracker,2013-01-24 04:15:00,
2013-01-23 20:20:00,40.3,41.0,29.85,ESE,112,0.0,0.0,98,0.00,,,0.46,WeatherTracker,2013-01-24 04:20:00,
2013-01-23 20:30:00,40.5,41.0,29.88,ESE,112,0.0,0.0,98,0.00,,,0.46,WeatherTracker,2013-01-24 04:30:00,
2013-01-23 20:40:00,40.5,41.0,29.88,ESE,112,0.0,0.0,98,0.00,,,0.46,WeatherTracker,2013-01-24 04:40:00,
2013-01-23 20:45:00,40.5,41.0,29.91,ESE,112,0.0,0.0,98,0.00,,,0.46,WeatherTracker,2013-01-24 04:45:00,
2013-01-23 20:50:00,40.5,41.0,29.91,ESE,112,0.0,0.0,98,0.00,,,0.46,WeatherTracker,2013-01-24 04:50:00,
2013-01-23 20:55:00,40.5,41.0,29.91,ESE,112,0.0,0.0,98,0.00,,,0.46,WeatherTracker,2013-01-24 04:55:00,
2013-01-23 21:00:00,40.5,41.0,29.88,ESE,112,0.0,0.0,98,0.00,,,0.46,WeatherTracker,2013-01-24 05:00:00,
2013-01-23 21:05:00,40.5,41.0,29.88,ESE,112,0.0,0.0,98,0.00,,,0.46,WeatherTracker,2013-01-24 05:05:00,
2013-01-23 21:10:00,40.5,41.0,29.88,ESE,112,0.0,0.0,98,0.00,,,0.46,WeatherTracker,2013-01-24 05:10:00,
2013-01-23 21:15:00,40.5,41.0,29.91,ESE,112,0.0,0.0,98,0.00,,,0.46,WeatherTracker,2013-01-24 05:15:00,
2013-01-23 21:20:00,40.5,41.0,29.91,ESE,112,0.0,0.0,98,0.00,,,0.46,WeatherTracker,2013-01-24 05:20:00,
2013-01-23 21:25:00,40.5,41.0,29.91,ESE,112,0.0,0.0,98,0.00,,,0.46,WeatherTracker,2013-01-24 05:25:00,
2013-01-23 21:30:00,40.5,41.0,29.91,ESE,112,0.0,0.0,98,0.00,,,0.46,WeatherTracker,2013-01-24 05:30:00,
2013-01-23 21:35:00,40.5,41.0,29.91,ESE,112,0.0,0.0,98,0.00,,,0.46,WeatherTracker,2013-01-24 05:35:00,
2013-01-23 21:40:00,40.5,41.0,29.91,ESE,112,0.0,0.0,98,0.00,,,0.46,WeatherTracker,2013-01-24 05:40:00,
2013-01-23 21:50:00,40.5,41.0,29.94,ESE,112,0.0,0.0,98,0.00,,,0.46,WeatherTracker,2013-01-24 05:50:00,
2013-01-23 21:55:00,40.5,41.0,29.94,East,90,0.0,0.0,98,0.00,,,0.46,WeatherTracker,2013-01-24 05:55:00,
2013-01-23 22:00:00,40.5,41.0,29.94,East,90,0.0,0.0,98,0.00,,,0.46,WeatherTracker,2013-01-24 06:00:00,
2013-01-23 22:10:00,40.5,41.0,29.94,East,90,0.0,0.0,98,0.00,,,0.46,WeatherTracker,2013-01-24 06:10:00,
2013-01-23 22:15:00,40.5,41.0,29.94,East,90,0.0,0.0,98,0.00,,,0.46,WeatherTracker,2013-01-24 06:15:00,
2013-01-23 22:25:00,40.6,41.0,29.94,East,90,0.0,0.0,98,0.00,,,0.46,WeatherTracker,2013-01-24 06:25:00,
2013-01-23 22:30:00,40.6,41.0,29.97,East,90,0.0,0.0,98,0.00,,,0.46,WeatherTracker,2013-01-24 06:30:00,
2013-01-23 22:40:00,40.6,41.0,29.97,East,90,0.0,0.0,98,0.00,,,0.46,WeatherTracker,2013-01-24 06:40:00,
2013-01-23 22:50:00,40.6,41.0,29.97,East,90,0.0,0.0,98,0.00,,,0.46,WeatherTracker,2013-01-24 06:50:00,
2013-01-23 22:55:00,40.6,41.0,29.97,East,90,0.0,0.0,98,0.00,,,0.46,WeatherTracker,2013-01-24 06:55:00,
2013-01-23 23:00:00,40.6,41.0,30.00,East,90,0.0,0.0,98,0.00,,,0.46,WeatherTracker,2013-01-24 07:00:00,
2013-01-23 23:05:00,40.6,41.0,30.00,East,90,0.0,0.0,98,0.00,,,0.46,WeatherTracker,2013-01-24 07:05:00,
2013-01-23 23:10:00,40.6,41.0,30.00,East,90,0.0,0.0,98,0.00,,,0.46,WeatherTracker,2013-01-24 07:10:00,
2013-01-23 23:15:00,40.8,41.0,29.97,East,90,0.0,0.0,98,0.00,,,0.46,WeatherTracker,2013-01-24 07:15:00,
2013-01-23 23:25:00,41.0,41.0,29.97,NNE,22,1.0,2.0,98,0.00,,,0.46,WeatherTracker,2013-01-24 07:25:00,
2013-01-23 23:35:00,41.4,41.0,30.00,NNE,22,1.0,0.0,98,0.00,,,0.46,WeatherTracker,2013-01-24 07:35:00,
2013-01-23 23:40:00,41.5,42.8,30.00,NNE,22,2.0,2.0,98,0.00,,,0.46,WeatherTracker,2013-01-24 07:40:00,
2013-01-23 23:45:00,41.5,42.8,30.00,NNE,22,1.0,1.0,98,0.00,,,0.46,WeatherTracker,2013-01-24 07:45:00,
2013-01-23 23:50:00,41.5,42.8,30.00,NNE,22,1.0,0.0,98,0.00,,,0.46,WeatherTracker,2013-01-24 07:50:00,